Logo AVAMET
Benvolgut visitant, si us plau, ingressa Recuperar contrasenya

Benicàssim centre

Dades diàries. Acumulats / Últims 30 dies disponibles

Data Temperatura (°C) Humitat rel. (%) Pressió rel. (hPa) Vent (km/h) Precipitació
Mínima Mitjana Màxima Amplitud
tèrmica
Mínima Mitjana Màxima Mínima Mitjana Màxima Predom. Mitjana Ràfega
màxima
Total
(mm)
Índex-n
Mínima Mitjana Màxima Mínima Mitjana Màxima n
0 a 1
P0 max
mm 5'
Dades mensuals acumulades fins l'últim dia disponible
01/2020 4,3 7,3 10,6 10,7 10,3 15,0 21,4 17,1 35 79 96 1.014 1.024 1.033   2,2 61,2 152,4
Dades anuals acumulades fins l'últim dia disponible
2020 4,3 7,3 10,6 10,7 10,3 15,0 21,4 17,1 35 79 96 1.014 1.024 1.033   2,2 61,2 152,4
Últims 30 dies disponibles
28-01-2020 10,6     14,7     21,4 10,8 46 70 82 1.017 1.018 1.019 SSE 2,1 29,0 0,0
27-01-2020 6,4     11,0     16,3 9,9 52 73 87 1.018 1.020 1.023 SE 0,2 8,0 0,0
26-01-2020 9,3     11,7     16,7 7,4 71 87 96 1.017 1.020 1.023 ESE 0,2 6,4 1,8 0,26 0,60
25-01-2020 9,8     12,0     14,7 4,9 77 85 93 1.017 1.018 1.021 ESE 1,7 16,1 4,6
24-01-2020 7,6     11,0     14,8 7,2 69 85 93 1.020 1.021 1.022 SSE 0,2 8,0 0,0
23-01-2020 8,0     11,1     14,2 6,2 72 81 91 1.017 1.020 1.022 E 0,3 9,7 0,0
22-01-2020 10,6     12,4     15,2 4,6 68 80 90 1.015 1.018 1.020 E 5,9 30,6 0,8
21-01-2020 7,7     10,7     13,9 6,2 88 93 96 1.014 1.017 1.021 ENE 13,4 54,7 55,4 0,54 3,60
20-01-2020 4,6     6,4     10,3 5,7 47 83 94 1.020 1.021 1.023 ENE 20,5 61,2 64,0 0,48 1,20
19-01-2020 6,4     10,0     12,6 6,2 45 74 90 1.014 1.017 1.021 ESE 7,0 41,8 25,4 0,47 1,10
18-01-2020 8,9     12,4     16,7 7,8 52 66 79 1.018 1.025 1.031 S 1,3 22,5 0,0
17-01-2020 7,6     12,4     18,7 11,1 35 67 91 1.024 1.026 1.030 SSE 0,8 19,3 0,0
16-01-2020 7,6     11,4     17,7 10,1 54 78 88 1.025 1.026 1.028 S 0,0 6,4 0,0
15-01-2020 5,1     9,1     14,7 9,6 56 80 94 1.021 1.024 1.026 SSO 0,1 9,7 0,0
14-01-2020 4,3     8,6     14,3 10,0 70 80 91 1.020 1.021 1.022 SO 0,0 8,0 0,0
13-01-2020 4,3     8,8     12,9 8,6 53 72 86 1.021 1.024 1.028 S 0,4 14,5 0,0
12-01-2020 4,9     9,2     14,3 9,4 70 83 91 1.028 1.029 1.030 S 0,1 6,4 0,0
11-01-2020 5,9     10,5     15,1 9,2 47 65 88 1.027 1.029 1.031 S 0,2 9,7 0,0
10-01-2020 8,6     12,3     14,8 6,2 44 63 93 1.022 1.024 1.028 E 4,1 43,5 0,0
09-01-2020 7,3     10,7     14,4 7,1 69 84 95 1.023 1.026 1.029 OSO 0,4 11,3 0,2
08-01-2020 7,1     10,4     16,3 9,2 65 83 93 1.027 1.029 1.031 SSE 0,4 14,5 0,0
07-01-2020 8,4     11,1     14,2 5,8 73 83 90 1.028 1.029 1.031 SSO 0,5 14,5 0,0
06-01-2020 7,0     10,4     15,2 8,2 71 83 92 1.027 1.028 1.030 SSE 0,1 6,4 0,0
05-01-2020 5,8     10,1     15,6 9,8 62 77 90 1.026 1.028 1.030 S 0,2 8,0 0,0
04-01-2020 6,8     10,2     15,8 9,0 51 81 94 1.030 1.031 1.033 SSE 0,1 9,7 0,2
03-01-2020 8,1     10,3     13,9 5,8 72 86 92 1.029 1.030 1.032 S 0,2 8,0 0,0
02-01-2020 8,7     11,1     13,3 4,6 73 83 90 1.029 1.030 1.032 SE 0,2 11,3 0,0
01-01-2020 7,9     10,7     12,9 5,0 79 87 93 1.030 1.031 1.033 SE 0,0 6,4 0,0
31-12-2019 8,5     11,2     13,9 5,4 75 84 91 1.031 1.032 1.034 SSE 0,1 8,0 0,0
30-12-2019 8,7     12,0     15,8 7,1 64 77 90 1.031 1.032 1.034 SSE 0,1 8,0 0,0
Últims 13 mesos disponibles
12/2019 7,6 10,4 16,4 13,7 12,9 17,7 25,6 18,0 44 73 89 999 1.017 1.032 S 2,3 72,4 118,4
11/2019 7,7 11,8 17,8 15,6 15,5 19,8 27,2 19,5 37 54 77 995 1.008 1.016 SSE 3,1 67,6 3,8
10/2019 11,3 16,7 20,8 20,4 17,7 24,4 27,9 16,6 45 71 87 1.005 1.015 1.020 S 1,4 54,7 27,4
09/2019 16,2 20,7 23,2 23,9 22,1 27,7 32,1 15,9 46 70 83 1.008 1.016 1.024 SE 3,1 59,5 73,8
08/2019 18,0 22,9 25,6 26,5 27,0 30,5 35,2 17,2 51 71 83 1.009 1.014 1.019 SSE 1,8 53,1 19,2
07/2019 21,8 23,2 25,4 27,0 28,5 30,9 33,6 11,8 47 65 79 1.004 1.012 1.020 SSE 1,8 45,1 13,2
06/2019 13,7 18,8 23,1 22,7 22,2 26,8 36,0 22,3 40 63 79 1.006 1.014 1.020 SE 2,5 40,2 0,0
05/2019 10,2 14,8 17,9 18,5 19,1 22,4 28,8 18,6 48 65 83 1.003 1.014 1.023 S 1,9 56,3 14,8
04/2019 7,0 11,8 14,6 15,4 15,7 19,4 26,4 19,4 45 64 88 997 1.011 1.024 S 4,1 56,3 48,6
03/2019 8,0 10,1 12,4 14,4 13,2 19,0 24,3 16,3 41 60 81 1.008 1.021 1.028 SSE 1,8 49,9 13,2
02/2019 4,4 7,7 11,4 11,7 11,7 16,4 20,7 16,3 30 67 86 991 1.022 1.033 SSO 1,7 96,6 0,2
01/2019 3,6 7,5 10,9 11,5 12,1 16,0 22,3 18,7 35 59 84 998 1.017 1.029 S 2,6 70,8 2,8
12/2018 6,3 9,6 12,2 12,9 14,2 17,6 22,5 16,2 48 75 90 1.006 1.023 1.029 SSO 0,7 59,5 4,8
Tots els anys disponibles
2019 3,6 14,8 25,6 18,6 11,7 22,7 36,0 32,4 30 65 89 991 1.015 1.033 SSE 2,4 96,6 335,4
2018 3,4 14,9 27,0 18,5 9,1 22,4 34,7 31,3 36 69 90 998 1.016 1.034 ENE 2,2 77,2 514,8
2017 4,3 9,7 17,9 13,2 9,1 17,2 27,0 22,7 29 58 84 994 1.020 1.034 NW 2,1 82,1 247,0
2016 3,8 15,4 24,9 18,6 11,1 22,2 32,9 29,1 2,3 70,8 409,2
2015 2,6 15,3 22,6 18,7 20,9 22,5 34,8 32,2 2,6 83,7 450,6
Temperatura (°C)
Humitat relativa (%)
Velocitat del vent i ràfega màxima (km/h)
Direcció del vent (°)
Pressió (hPa)
Precipitació (mm)
Nota sobre les dades: s'avisa a l'usuari de la provisionalitat i no oficialitat d'aquestes dades
Logo AVAMET blanc
Web allotjada a Sollutia
Llicència de Creative CommonsLa web d'AVAMET i els seus continguts estan subjectes a una llicència de
Reconeixement - No Comercial - Compartir igual
Últimes estacions: Xixona - Els Ameradors (Soci), Agres - El Tossal (Soci), Xàbia - Bevenguts (MeteoXàbia), Llíria (Aj. Soci/Inforatge), Orihuela - Lo Capitán, Cox & Guardamar del Segura - horta (Meteorihuela), l'Alcúdia - Carriona & el Real de Gandia (Inforatge), Benicàssim - les Vil·les (Soci),  l'Alfàs del Pi - l'Albir (Soci), - - -